Time;durP1;ratioP1;P1;durP2;ratioP2;P2;SDS_P1;SDS_P2;PMS_P1;PMS_P2;Temp;Humidity;BMP_temperature;BMP_pressure;BME280_temperature;BME280_humidity;BME280_pressure;Samples;Min_cycle;Max_cycle;Signal;HPM_P1;HPM_P2
2022/06/15 00:01:29;;;;;;;2.45;1.17;;;12.20;99.90;;;;;;5031434;28;20024;-76
2022/06/15 00:03:55;;;;;;;1.45;1.08;;;12.20;99.90;;;;;;5030822;28;20380;-76
2022/06/15 00:06:27;;;;;;;0.80;0.80;;;12.20;99.90;;;;;;5035186;28;20431;-76
2022/06/15 00:08:54;;;;;;;1.00;0.85;;;12.20;99.90;;;;;;5030920;28;20387;-76
2022/06/15 00:11:32;;;;;;;2.65;1.13;;;12.20;99.90;;;;;;5031375;28;20036;-76
2022/06/15 00:14:02;;;;;;;1.63;1.13;;;12.10;99.90;;;;;;5030710;28;20056;-76
2022/06/15 00:16:27;;;;;;;12.15;2.15;;;12.10;99.90;;;;;;5031632;28;20084;-77
2022/06/15 00:18:53;;;;;;;1.10;1.00;;;12.10;99.90;;;;;;5050978;28;20025;-76
2022/06/15 00:21:20;;;;;;;0.80;0.80;;;12.00;99.90;;;;;;5033517;28;20033;-76
2022/06/15 00:23:46;;;;;;;1.63;1.20;;;12.00;99.90;;;;;;5030261;28;20444;-76
2022/06/15 00:26:13;;;;;;;1.15;0.88;;;12.00;99.90;;;;;;5030876;28;20025;-77
2022/06/15 00:28:38;;;;;;;2.20;1.23;;;12.00;99.90;;;;;;5030487;28;20040;-76
2022/06/15 00:31:04;;;;;;;2.25;1.35;;;12.00;99.90;;;;;;5043948;28;20029;-76
2022/06/15 00:33:30;;;;;;;1.20;1.10;;;11.90;99.90;;;;;;5030615;28;20036;-76
2022/06/15 00:36:02;;;;;;;1.42;1.33;;;11.90;99.90;;;;;;5030056;28;20069;-77
2022/06/15 00:38:39;;;;;;;1.23;1.02;;;11.90;99.90;;;;;;5029760;28;20079;-76
2022/06/15 00:41:07;;;;;;;1.00;0.90;;;11.90;99.90;;;;;;5029844;28;20033;-76
2022/06/15 00:43:39;;;;;;;1.45;1.27;;;11.80;99.90;;;;;;5030504;28;20022;-76
2022/06/15 00:46:18;;;;;;;1.13;0.95;;;11.80;99.90;;;;;;5028220;28;20495;-76
2022/06/15 00:48:46;;;;;;;1.13;1.02;;;11.80;99.90;;;;;;5022850;28;20080;-76
2022/06/15 00:51:13;;;;;;;1.92;1.00;;;11.80;99.90;;;;;;5030253;28;20490;-76
2022/06/15 00:53:38;;;;;;;1.88;1.08;;;11.70;99.90;;;;;;5029793;28;20516;-76
2022/06/15 00:56:06;;;;;;;1.08;0.82;;;11.70;99.90;;;;;;5024965;28;20072;-76
2022/06/15 00:58:32;;;;;;;1.95;1.15;;;11.70;99.90;;;;;;5036396;28;20068;-76
2022/06/15 01:00:57;;;;;;;1.33;1.15;;;11.70;99.90;;;;;;5029541;28;20037;-76
2022/06/15 01:03:23;;;;;;;1.27;1.15;;;11.60;99.90;;;;;;5029975;28;20017;-76
2022/06/15 01:06:05;;;;;;;0.98;0.88;;;11.60;99.90;;;;;;5030612;28;20176;-76
2022/06/15 01:09:01;;;;;;;1.15;0.88;;;11.60;99.90;;;;;;5030051;28;20036;-76
2022/06/15 01:11:55;;;;;;;1.80;1.20;;;11.50;99.90;;;;;;5029779;28;20447;-76
2022/06/15 01:14:47;;;;;;;1.63;1.20;;;11.50;99.90;;;;;;5029300;28;20109;-76
2022/06/15 01:17:28;;;;;;;2.45;1.08;;;11.50;99.90;;;;;;5021468;28;20107;-75
2022/06/15 01:20:27;;;;;;;1.60;1.08;;;11.50;99.90;;;;;;5029330;28;20713;-76
2022/06/15 01:23:58;;;;;;;1.17;0.90;;;11.50;99.90;;;;;;5031124;28;20059;-76
2022/06/15 01:26:35;;;;;;;1.35;0.82;;;11.50;99.90;;;;;;4934927;29;20036;-76
2022/06/15 01:29:19;;;;;;;2.67;1.20;;;11.50;99.90;;;;;;4929695;29;20094;-76
2022/06/15 01:31:53;;;;;;;1.55;1.15;;;11.50;99.90;;;;;;4988728;28;20527;-76
2022/06/15 01:34:35;;;;;;;1.38;1.08;;;11.40;99.90;;;;;;5033795;28;20029;-76
2022/06/15 01:37:18;;;;;;;1.58;1.27;;;11.40;99.90;;;;;;5016008;28;20048;-76
2022/06/15 01:39:56;;;;;;;1.00;0.90;;;11.40;99.90;;;;;;5022812;28;20619;-77
2022/06/15 01:42:34;;;;;;;1.15;1.02;;;11.40;99.90;;;;;;5022976;28;20033;-76
2022/06/15 01:45:14;;;;;;;1.88;1.00;;;11.30;99.90;;;;;;5029077;28;20036;-77
2022/06/15 01:47:42;;;;;;;3.30;1.13;;;11.30;99.90;;;;;;5029291;28;20108;-76
2022/06/15 01:50:29;;;;;;;1.88;1.20;;;11.30;99.90;;;;;;5030021;28;20036;-77
2022/06/15 01:53:01;;;;;;;1.17;0.88;;;11.30;99.90;;;;;;5027482;28;20025;-76
2022/06/15 01:56:01;;;;;;;1.95;1.15;;;11.30;99.90;;;;;;5028363;28;20044;-76
2022/06/15 01:58:30;;;;;;;1.33;0.88;;;11.20;99.90;;;;;;4986701;28;20030;-76
2022/06/15 02:01:12;;;;;;;1.35;1.25;;;11.20;99.90;;;;;;5027240;28;20018;-76
2022/06/15 02:04:02;;;;;;;2.20;1.52;;;11.20;99.90;;;;;;5029207;28;20041;-76
2022/06/15 02:06:39;;;;;;;2.40;0.90;;;11.10;99.90;;;;;;5021088;28;20113;-76
2022/06/15 02:09:20;;;;;;;1.10;1.00;;;11.10;99.90;;;;;;5028659;28;20757;-76
2022/06/15 02:11:46;;;;;;;2.10;1.13;;;11.10;99.90;;;;;;5028217;28;20218;-76
2022/06/15 02:14:26;;;;;;;7.15;1.00;;;11.10;99.90;;;;;;5029134;28;20543;-77
2022/06/15 02:17:05;;;;;;;1.23;1.13;;;11.10;99.90;;;;;;5028150;28;20032;-77
2022/06/15 02:19:39;;;;;;;1.42;1.08;;;11.10;99.90;;;;;;5028478;28;20029;-76
2022/06/15 02:22:09;;;;;;;1.67;1.08;;;11.00;99.90;;;;;;5031994;28;20029;-76
2022/06/15 02:24:36;;;;;;;2.00;1.63;;;11.00;99.90;;;;;;5044290;28;20088;-76
2022/06/15 02:27:05;;;;;;;0.60;0.60;;;10.90;99.90;;;;;;5029604;28;20148;-77
2022/06/15 02:29:34;;;;;;;2.63;1.42;;;11.00;99.90;;;;;;5030178;28;20025;-76
2022/06/15 02:32:00;;;;;;;1.92;1.42;;;10.90;99.90;;;;;;5029235;28;20061;-76
2022/06/15 02:34:26;;;;;;;1.13;1.00;;;10.90;99.90;;;;;;5034181;28;20067;-76
2022/06/15 02:36:52;;;;;;;2.90;1.10;;;10.90;99.90;;;;;;5028396;28;20017;-76
2022/06/15 02:39:18;;;;;;;0.55;0.55;;;10.90;99.90;;;;;;5023407;28;20026;-76
2022/06/15 02:41:43;;;;;;;1.33;1.23;;;10.90;99.90;;;;;;5028412;28;20032;-76
2022/06/15 02:44:13;;;;;;;1.88;1.17;;;10.80;99.90;;;;;;5028153;28;20125;-77
2022/06/15 02:46:43;;;;;;;1.15;1.05;;;10.80;99.90;;;;;;5017155;28;20124;-76
2022/06/15 02:49:09;;;;;;;2.67;1.30;;;10.80;99.90;;;;;;5028322;28;20675;-76
2022/06/15 02:51:43;;;;;;;1.10;1.00;;;10.80;99.90;;;;;;5029715;28;20120;-76
2022/06/15 02:54:31;;;;;;;1.50;0.80;;;10.80;99.90;;;;;;5028701;28;20052;-76
2022/06/15 02:56:57;;;;;;;2.10;1.55;;;10.80;99.90;;;;;;5019831;28;20034;-76
2022/06/15 02:59:23;;;;;;;1.83;1.50;;;10.80;99.90;;;;;;5028482;28;20448;-76
2022/06/15 03:01:48;;;;;;;1.42;1.00;;;10.70;99.90;;;;;;5028547;28;20026;-76
2022/06/15 03:04:14;;;;;;;2.47;1.58;;;10.80;99.90;;;;;;5028991;28;20025;-76
2022/06/15 03:06:39;;;;;;;1.67;1.05;;;10.80;99.90;;;;;;5022275;28;20026;-76
2022/06/15 03:09:05;;;;;;;1.40;1.10;;;10.70;99.90;;;;;;5028381;28;20105;-76
2022/06/15 03:11:31;;;;;;;3.50;1.20;;;10.70;99.90;;;;;;5028757;28;20052;-76
2022/06/15 03:13:56;;;;;;;1.00;0.90;;;10.70;99.90;;;;;;5027747;28;20076;-76
2022/06/15 03:16:22;;;;;;;1.15;1.10;;;10.70;99.90;;;;;;5031852;28;20025;-76
2022/06/15 03:18:47;;;;;;;1.00;0.80;;;10.70;99.90;;;;;;5033174;28;20075;-77
2022/06/15 03:21:13;;;;;;;1.02;0.70;;;10.70;99.90;;;;;;5028269;28;20049;-76
2022/06/15 03:23:39;;;;;;;2.38;1.65;;;10.70;99.90;;;;;;5024389;28;20030;-76
2022/06/15 03:26:05;;;;;;;0.93;0.90;;;10.70;99.90;;;;;;5028787;28;20044;-76
2022/06/15 03:28:30;;;;;;;1.45;1.23;;;10.70;99.90;;;;;;5027352;28;20061;-76
2022/06/15 03:30:56;;;;;;;2.88;1.90;;;10.70;99.90;;;;;;5031810;28;20040;-76
2022/06/15 03:33:22;;;;;;;1.42;1.08;;;10.70;99.90;;;;;;5028968;28;20334;-76
2022/06/15 03:35:48;;;;;;;5.93;1.42;;;10.70;99.90;;;;;;5028306;28;20144;-76
2022/06/15 03:38:14;;;;;;;1.52;1.00;;;10.80;99.90;;;;;;5034864;28;20468;-76
2022/06/15 03:40:42;;;;;;;0.90;0.77;;;10.80;99.90;;;;;;5049191;28;20104;-76
2022/06/15 03:43:08;;;;;;;1.30;1.20;;;10.80;99.90;;;;;;5029290;28;20040;-76
2022/06/15 03:45:34;;;;;;;1.48;1.08;;;10.90;99.90;;;;;;5048351;28;20033;-76
2022/06/15 03:48:00;;;;;;;1.75;1.20;;;10.90;99.90;;;;;;5028526;28;20048;-75
2022/06/15 03:50:29;;;;;;;1.20;1.10;;;11.00;99.90;;;;;;5028508;28;20029;-76
2022/06/15 03:52:54;;;;;;;2.53;1.23;;;11.10;99.90;;;;;;5020597;28;20136;-76
2022/06/15 03:55:20;;;;;;;1.05;0.85;;;11.20;99.90;;;;;;5027351;28;20120;-77
2022/06/15 03:57:46;;;;;;;1.15;1.05;;;11.20;99.90;;;;;;5033610;28;20521;-76
2022/06/15 04:00:17;;;;;;;1.65;0.95;;;11.20;99.90;;;;;;5031117;28;20025;-76
2022/06/15 04:02:42;;;;;;;1.67;1.02;;;11.20;99.90;;;;;;5029982;28;20064;-77
2022/06/15 04:05:14;;;;;;;9.48;1.63;;;11.20;99.90;;;;;;5029506;28;20041;-76
2022/06/15 04:10:24;;;;;;;0.50;0.50;;;11.30;99.90;;;;;;5037048;28;20032;-76
2022/06/15 04:12:49;;;;;;;1.25;0.93;;;11.30;99.90;;;;;;5030836;28;20038;-76
2022/06/15 04:15:16;;;;;;;0.95;0.85;;;11.30;99.90;;;;;;5029870;28;20040;-76
2022/06/15 04:17:44;;;;;;;4.10;1.10;;;11.40;99.90;;;;;;5031657;28;20030;-77
2022/06/15 04:20:33;;;;;;;1.98;1.50;;;11.50;99.90;;;;;;5028190;28;20072;-76
2022/06/15 04:23:04;;;;;;;1.17;1.08;;;11.50;99.90;;;;;;5025476;28;20041;-77
2022/06/15 04:25:31;;;;;;;2.00;1.80;;;11.50;99.90;;;;;;5032285;28;20460;-76
2022/06/15 04:27:57;;;;;;;1.20;0.90;;;11.60;99.90;;;;;;5030805;28;20128;-76
2022/06/15 04:30:23;;;;;;;4.38;2.08;;;11.60;99.90;;;;;;5031143;28;20021;-77
2022/06/15 04:32:49;;;;;;;2.90;1.55;;;11.70;99.90;;;;;;5030965;28;20037;-76
2022/06/15 04:35:15;;;;;;;1.60;1.10;;;11.80;99.90;;;;;;5028737;28;20048;-76
2022/06/15 04:37:41;;;;;;;2.80;1.17;;;11.80;99.90;;;;;;5031643;28;20037;-76
2022/06/15 04:40:08;;;;;;;1.58;1.10;;;11.90;99.90;;;;;;5029348;28;20043;-77
2022/06/15 04:42:35;;;;;;;1.38;1.23;;;12.00;99.90;;;;;;5029614;28;20022;-77
2022/06/15 04:45:00;;;;;;;0.95;0.90;;;12.00;99.90;;;;;;5029015;28;20034;-76
2022/06/15 04:47:26;;;;;;;1.77;1.27;;;12.10;99.90;;;;;;5029622;28;20024;-76
2022/06/15 04:49:51;;;;;;;2.13;1.50;;;12.20;99.90;;;;;;5030076;28;20159;-76
2022/06/15 04:52:16;;;;;;;3.38;1.50;;;12.30;99.90;;;;;;5031055;28;20022;-76
2022/06/15 04:54:42;;;;;;;1.33;1.23;;;12.40;99.90;;;;;;5032200;28;20048;-76
2022/06/15 04:57:07;;;;;;;3.10;1.60;;;12.50;99.90;;;;;;5028142;28;20041;-76
2022/06/15 04:59:33;;;;;;;1.73;1.35;;;12.70;99.90;;;;;;5030352;28;20068;-75
2022/06/15 05:01:58;;;;;;;1.55;1.40;;;12.80;99.90;;;;;;5030741;28;20503;-76
2022/06/15 05:04:25;;;;;;;1.08;0.98;;;12.90;99.90;;;;;;5030176;28;20025;-76
2022/06/15 05:06:51;;;;;;;2.40;1.30;;;13.00;99.90;;;;;;5029484;28;20085;-76
2022/06/15 05:09:17;;;;;;;1.65;1.20;;;13.10;99.90;;;;;;5029550;28;20104;-76
2022/06/15 05:11:43;;;;;;;8.50;1.98;;;13.10;99.90;;;;;;5029105;28;20519;-80
2022/06/15 05:14:09;;;;;;;2.55;1.83;;;13.10;99.90;;;;;;5029040;28;20055;-80
2022/06/15 05:16:34;;;;;;;3.33;1.50;;;13.20;99.90;;;;;;5031885;28;20677;-80
2022/06/15 05:19:00;;;;;;;3.28;0.98;;;13.30;99.90;;;;;;5029169;28;20028;-79
2022/06/15 05:21:27;;;;;;;1.63;1.30;;;13.40;99.90;;;;;;5029647;28;21138;-81
2022/06/15 05:23:52;;;;;;;1.98;1.48;;;13.40;99.90;;;;;;5028939;28;20036;-81
2022/06/15 05:26:18;;;;;;;1.30;1.20;;;13.50;99.90;;;;;;5030040;28;20451;-78
2022/06/15 05:28:45;;;;;;;3.22;1.33;;;13.50;99.90;;;;;;5035482;28;20029;-78
2022/06/15 05:31:18;;;;;;;3.28;1.45;;;13.60;99.90;;;;;;5028748;28;20550;-76
2022/06/15 05:33:44;;;;;;;1.67;1.25;;;13.60;99.90;;;;;;5036549;28;20222;-77
2022/06/15 05:36:13;;;;;;;2.67;1.55;;;13.60;99.90;;;;;;5027535;28;20021;-78
2022/06/15 05:38:39;;;;;;;1.95;1.35;;;13.70;99.90;;;;;;5026928;28;20455;-79
2022/06/15 05:41:05;;;;;;;1.25;0.95;;;13.70;99.90;;;;;;5028849;28;20113;-75
2022/06/15 05:43:31;;;;;;;1.20;0.98;;;13.70;99.90;;;;;;5026643;28;20021;-79
2022/06/15 05:45:57;;;;;;;1.45;1.27;;;13.80;99.90;;;;;;5028104;28;20037;-79
2022/06/15 05:48:23;;;;;;;1.95;1.42;;;13.80;99.90;;;;;;5025464;28;20025;-79
2022/06/15 05:50:48;;;;;;;3.95;1.30;;;13.90;99.90;;;;;;5027989;28;20028;-79
2022/06/15 05:53:13;;;;;;;2.28;1.70;;;14.00;99.90;;;;;;5033062;28;20044;-81
2022/06/15 05:55:39;;;;;;;3.78;1.23;;;14.20;99.90;;;;;;5016695;28;20037;-80
2022/06/15 05:58:05;;;;;;;2.10;1.58;;;14.20;99.90;;;;;;5030509;28;20699;-80
2022/06/15 06:00:31;;;;;;;5.07;1.10;;;14.30;99.90;;;;;;5029492;28;20124;-80
2022/06/15 06:02:57;;;;;;;3.38;1.25;;;14.30;99.90;;;;;;5027331;28;20524;-80
2022/06/15 06:05:23;;;;;;;2.28;1.17;;;14.40;99.90;;;;;;5030367;28;20480;-82
2022/06/15 06:07:48;;;;;;;1.25;0.70;;;14.50;99.90;;;;;;5021899;28;20489;-81
2022/06/15 06:10:14;;;;;;;0.65;0.65;;;14.50;99.90;;;;;;5045522;28;20059;-82
2022/06/15 06:12:40;;;;;;;5.38;0.95;;;14.60;99.90;;;;;;5039275;28;20068;-80
2022/06/15 06:15:06;;;;;;;2.85;1.10;;;14.70;99.90;;;;;;5024183;28;20079;-78
2022/06/15 06:17:31;;;;;;;1.10;1.00;;;14.80;99.90;;;;;;5032208;28;20396;-79
2022/06/15 06:19:57;;;;;;;1.10;0.90;;;14.90;99.90;;;;;;5040168;28;20040;-79
2022/06/15 06:22:22;;;;;;;0.90;0.80;;;15.00;99.90;;;;;;5028360;28;20048;-78
2022/06/15 06:24:48;;;;;;;2.75;1.52;;;15.10;99.20;;;;;;5028143;28;20084;-76
2022/06/15 06:27:15;;;;;;;0.70;0.70;;;15.20;99.60;;;;;;5021530;28;20079;-76
2022/06/15 06:29:41;;;;;;;9.90;1.33;;;15.30;99.90;;;;;;5031847;28;20104;-78
2022/06/15 06:32:10;;;;;;;1.38;1.27;;;15.50;99.10;;;;;;5029032;28;20076;-79
2022/06/15 06:34:36;;;;;;;3.17;1.48;;;15.60;98.00;;;;;;5029660;28;20032;-78
2022/06/15 06:37:05;;;;;;;1.50;1.13;;;15.80;95.90;;;;;;5029479;28;20469;-81
2022/06/15 06:39:31;;;;;;;0.70;0.57;;;16.00;93.80;;;;;;5029565;28;20037;-80
2022/06/15 06:41:59;;;;;;;3.67;0.60;;;16.20;91.20;;;;;;5027673;28;20032;-81
2022/06/15 06:44:25;;;;;;;0.50;0.50;;;16.40;90.00;;;;;;5028763;28;20480;-81
2022/06/15 06:46:51;;;;;;;4.68;0.85;;;16.50;88.50;;;;;;5029395;28;20151;-79
2022/06/15 06:49:19;;;;;;;0.50;0.50;;;16.70;91.30;;;;;;5012995;28;20076;-80
2022/06/15 06:51:46;;;;;;;0.95;0.52;;;16.90;88.80;;;;;;5028709;28;20114;-78
2022/06/15 06:54:14;;;;;;;2.17;1.15;;;17.00;89.20;;;;;;5023672;28;20096;-74
2022/06/15 06:56:39;;;;;;;0.32;0.28;;;17.00;85.50;;;;;;5011250;28;20044;-78
2022/06/15 06:59:07;;;;;;;0.35;0.28;;;17.00;82.60;;;;;;5027540;28;20388;-76
2022/06/15 07:01:35;;;;;;;0.88;0.45;;;17.00;82.60;;;;;;5025676;28;20100;-77
2022/06/15 07:04:00;;;;;;;0.30;0.30;;;17.10;83.00;;;;;;5027508;28;20026;-78
2022/06/15 07:06:25;;;;;;;0.63;0.50;;;17.20;80.80;;;;;;5024484;28;20033;-77
2022/06/15 07:08:51;;;;;;;0.77;0.45;;;17.30;80.60;;;;;;5024168;28;20029;-78
2022/06/15 07:11:17;;;;;;;0.77;0.68;;;17.40;81.90;;;;;;5029428;28;20029;-77
2022/06/15 07:13:44;;;;;;;2.38;0.63;;;17.50;78.50;;;;;;5031110;28;20434;-78
2022/06/15 07:16:11;;;;;;;0.85;0.65;;;17.60;78.70;;;;;;5036210;28;20083;-77
2022/06/15 07:18:37;;;;;;;0.57;0.57;;;17.70;76.30;;;;;;5028153;28;20025;-74
2022/06/15 07:21:12;;;;;;;0.30;0.30;;;17.80;74.80;;;;;;5028934;28;20503;-75
2022/06/15 07:23:38;;;;;;;0.40;0.40;;;17.70;73.50;;;;;;5027942;28;20026;-75
2022/06/15 07:26:11;;;;;;;0.47;0.47;;;17.60;72.80;;;;;;5026625;28;20045;-76
2022/06/15 07:28:38;;;;;;;0.50;0.50;;;17.60;73.50;;;;;;5027529;28;20045;-79
2022/06/15 07:31:04;;;;;;;0.40;0.40;;;17.70;74.10;;;;;;5041721;28;20030;-77
2022/06/15 07:33:29;;;;;;;2.50;0.70;;;17.60;72.60;;;;;;5027131;28;20083;-79
2022/06/15 07:35:55;;;;;;;3.60;0.75;;;17.60;73.20;;;;;;5030083;28;20041;-77
2022/06/15 07:38:20;;;;;;;0.95;0.75;;;17.60;72.00;;;;;;5030415;28;20076;-79
2022/06/15 07:40:47;;;;;;;0.52;0.40;;;17.60;72.60;;;;;;5031009;28;20117;-78
2022/06/15 07:43:13;;;;;;;2.47;0.95;;;17.80;75.50;;;;;;5044033;28;20029;-76
2022/06/15 07:45:38;;;;;;;1.15;0.60;;;17.80;73.90;;;;;;5044633;28;20092;-78
2022/06/15 07:50:48;;;;;;;0.47;0.45;;;17.90;72.10;;;;;;5035125;28;20060;-77
2022/06/15 07:53:14;;;;;;;3.33;1.23;;;17.80;73.00;;;;;;5029939;28;20488;-76
2022/06/15 07:55:43;;;;;;;1.17;0.70;;;18.00;77.00;;;;;;5030988;28;20047;-79
2022/06/15 07:58:10;;;;;;;0.40;0.40;;;17.90;75.70;;;;;;5038174;28;20752;-76
2022/06/15 08:00:39;;;;;;;0.73;0.73;;;17.90;79.10;;;;;;5031871;28;20025;-80
2022/06/15 08:03:05;;;;;;;4.22;0.40;;;18.00;79.80;;;;;;5031831;28;20084;-82
2022/06/15 08:05:36;;;;;;;0.25;0.25;;;18.10;78.10;;;;;;5024310;28;20543;-77
2022/06/15 08:08:13;;;;;;;0.43;0.43;;;18.20;73.80;;;;;;5045677;28;20056;-79
2022/06/15 08:10:39;;;;;;;0.50;0.50;;;18.10;79.00;;;;;;5039820;28;20109;-80
2022/06/15 08:13:05;;;;;;;2.50;0.73;;;18.20;77.40;;;;;;5035990;28;20472;-77
2022/06/15 08:15:31;;;;;;;1.20;0.60;;;18.30;70.80;;;;;;5030225;28;20040;-78
2022/06/15 08:18:00;;;;;;;0.55;0.55;;;18.30;72.10;;;;;;5034181;28;20108;-81
2022/06/15 08:20:36;;;;;;;1.55;0.73;;;18.40;70.10;;;;;;5030839;28;20116;-79
2022/06/15 08:23:10;;;;;;;1.58;1.02;;;18.50;69.60;;;;;;5036945;28;20021;-80
2022/06/15 08:25:41;;;;;;;2.15;1.45;;;18.40;68.30;;;;;;5031416;28;20047;-80
2022/06/15 08:28:08;;;;;;;2.63;0.88;;;18.00;74.60;;;;;;5029134;28;20033;-84
2022/06/15 08:30:36;;;;;;;1.63;0.95;;;18.40;69.00;;;;;;5041543;28;20037;-80
2022/06/15 08:33:02;;;;;;;0.65;0.50;;;18.40;68.10;;;;;;5042220;28;20033;-80
2022/06/15 08:35:28;;;;;;;0.50;0.50;;;18.40;71.00;;;;;;5043322;28;20053;-79
2022/06/15 08:37:53;;;;;;;0.77;0.60;;;18.50;72.00;;;;;;5031482;28;20099;-84
2022/06/15 08:40:19;;;;;;;0.60;0.60;;;18.60;81.10;;;;;;5034745;28;20052;-79
2022/06/15 08:43:05;;;;;;;0.77;0.77;;;18.80;79.40;;;;;;5027665;28;20033;-79
2022/06/15 08:45:50;;;;;;;2.15;0.60;;;19.00;78.50;;;;;;5026870;28;20084;-75
2022/06/15 08:48:24;;;;;;;0.68;0.60;;;19.00;79.10;;;;;;5027676;28;20033;-78
2022/06/15 08:50:58;;;;;;;2.78;0.70;;;19.00;75.00;;;;;;5030276;28;20163;-86
2022/06/15 08:53:42;;;;;;;2.53;1.35;;;18.90;80.70;;;;;;5022195;28;20411;-81
2022/06/15 08:56:14;;;;;;;1.08;0.93;;;19.00;77.40;;;;;;5042794;28;20226;-77
2022/06/15 08:58:44;;;;;;;;;;;19.00;80.90;;;;;;5030494;28;20071;-78
2022/06/15 09:01:28;;;;;;;2.78;0.88;;;19.00;72.40;;;;;;5030397;28;19992;-76
2022/06/15 09:04:06;;;;;;;2.13;0.77;;;19.10;80.70;;;;;;5030858;28;20551;-76
2022/06/15 09:06:47;;;;;;;1.95;0.50;;;19.20;78.90;;;;;;5030545;28;20053;-76
2022/06/15 09:09:37;;;;;;;1.02;0.57;;;19.30;76.00;;;;;;5034543;28;20109;-76
2022/06/15 09:15:31;;;;;;;3.10;0.88;;;19.60;70.60;;;;;;5025708;28;20044;-76
2022/06/15 09:18:01;;;;;;;0.93;0.68;;;19.60;73.20;;;;;;5020051;28;20033;-75
2022/06/15 09:20:32;;;;;;;1.23;0.80;;;19.70;74.40;;;;;;5027098;28;20696;-78
2022/06/15 09:23:07;;;;;;;0.40;0.40;;;19.80;70.70;;;;;;5040810;28;20029;-76
2022/06/15 09:25:42;;;;;;;0.77;0.50;;;19.80;70.10;;;;;;5037174;28;20028;-77
2022/06/15 09:28:28;;;;;;;6.90;1.17;;;19.90;73.40;;;;;;5030727;28;20037;-75
2022/06/15 09:31:01;;;;;;;0.50;0.50;;;20.10;71.80;;;;;;5032055;28;20034;-76
2022/06/15 09:33:43;;;;;;;1.25;0.70;;;20.00;69.60;;;;;;5033212;28;20521;-76
2022/06/15 09:36:22;;;;;;;0.68;0.60;;;20.20;71.60;;;;;;5027444;28;20025;-76
2022/06/15 09:38:48;;;;;;;0.88;0.77;;;20.20;72.50;;;;;;5027643;28;20397;-77
2022/06/15 09:41:18;;;;;;;0.70;0.70;;;20.30;70.40;;;;;;5028707;28;20017;-76
2022/06/15 09:44:07;;;;;;;0.85;0.82;;;20.40;68.50;;;;;;5029159;28;20029;-76
2022/06/15 09:46:40;;;;;;;0.60;0.60;;;20.40;66.70;;;;;;5028759;28;20033;-76
2022/06/15 09:49:21;;;;;;;3.70;1.17;;;20.50;65.40;;;;;;5024168;28;20065;-76
2022/06/15 09:52:10;;;;;;;3.00;0.77;;;20.60;65.30;;;;;;5029697;28;20059;-75
2022/06/15 09:54:59;;;;;;;0.70;0.70;;;20.50;63.80;;;;;;5015866;28;20044;-76
2022/06/15 09:57:24;;;;;;;1.48;1.30;;;20.70;61.60;;;;;;5028514;28;20064;-76
2022/06/15 09:59:50;;;;;;;1.00;0.60;;;20.80;66.80;;;;;;5026108;28;20056;-75
2022/06/15 10:02:29;;;;;;;0.80;0.80;;;21.10;67.40;;;;;;5046452;28;20021;-75
2022/06/15 10:04:57;;;;;;;0.80;0.80;;;21.30;64.80;;;;;;5049148;28;20589;-76
2022/06/15 10:07:35;;;;;;;1.10;0.70;;;21.40;65.30;;;;;;5048766;28;20032;-75
2022/06/15 10:10:15;;;;;;;1.10;0.77;;;21.50;66.60;;;;;;5034490;28;20061;-76
2022/06/15 10:12:58;;;;;;;2.03;1.15;;;21.40;65.10;;;;;;5038298;28;20036;-75
2022/06/15 10:15:49;;;;;;;2.05;0.73;;;21.50;67.50;;;;;;5044182;28;20039;-75
2022/06/15 10:18:48;;;;;;;3.45;1.00;;;21.60;63.90;;;;;;5028907;28;20388;-76
2022/06/15 10:21:13;;;;;;;4.25;1.10;;;21.90;64.20;;;;;;5029099;28;20498;-76
2022/06/15 10:24:17;;;;;;;1.42;0.90;;;22.00;58.50;;;;;;5029354;28;20021;-76
2022/06/15 10:26:52;;;;;;;1.20;0.98;;;21.60;59.40;;;;;;5024401;28;20563;-76
2022/06/15 10:29:22;;;;;;;1.23;1.00;;;21.70;60.70;;;;;;5028627;28;20086;-76
2022/06/15 10:32:05;;;;;;;1.23;1.13;;;21.80;62.10;;;;;;5015634;28;20034;-75
2022/06/15 10:34:46;;;;;;;2.50;1.33;;;22.00;62.30;;;;;;5028731;28;20032;-76
2022/06/15 10:37:29;;;;;;;5.40;1.10;;;22.10;60.60;;;;;;5027542;28;20038;-75
2022/06/15 10:39:58;;;;;;;0.70;0.70;;;22.30;61.00;;;;;;5028685;28;20679;-75
2022/06/15 10:42:24;;;;;;;1.45;1.17;;;22.30;61.80;;;;;;5027757;28;20075;-75
2022/06/15 10:44:56;;;;;;;0.80;0.80;;;22.70;56.90;;;;;;5030713;28;20068;-76
2022/06/15 10:47:32;;;;;;;2.78;1.10;;;23.20;58.10;;;;;;5025537;28;20021;-76
2022/06/15 10:50:01;;;;;;;1.45;0.90;;;23.50;53.90;;;;;;5049978;28;20036;-76
2022/06/15 10:52:38;;;;;;;0.85;0.77;;;23.30;55.60;;;;;;5049405;28;20131;-75
2022/06/15 11:04:23;;;;;;;3.83;1.10;;;22.30;59.00;;;;;;5027955;28;20614;-76
2022/06/15 11:07:11;;;;;;;1.30;1.20;;;22.80;58.20;;;;;;5029335;28;20072;-75
2022/06/15 11:09:56;;;;;;;1.88;1.02;;;23.10;56.60;;;;;;5041726;28;20171;-76
2022/06/15 11:12:33;;;;;;;1.73;1.38;;;23.00;56.00;;;;;;5035114;28;20123;-76
2022/06/15 11:15:03;;;;;;;1.30;1.13;;;23.10;58.30;;;;;;5053313;28;20115;-76
2022/06/15 11:20:48;;;;;;;1.38;0.90;;;23.30;57.30;;;;;;5031859;28;20043;-76
2022/06/15 11:23:23;;;;;;;3.97;1.27;;;23.30;57.10;;;;;;5033332;28;20113;-76
2022/06/15 11:28:59;;;;;;;1.10;1.00;;;23.50;55.30;;;;;;5044930;28;20036;-76
2022/06/15 11:31:28;;;;;;;1.08;0.98;;;24.00;54.20;;;;;;5046603;28;20025;-76
2022/06/15 11:34:11;;;;;;;1.17;0.90;;;24.20;56.10;;;;;;5033272;28;20029;-76
2022/06/15 11:36:48;;;;;;;1.63;0.90;;;24.70;53.00;;;;;;5032584;28;20028;-76
2022/06/15 11:39:20;;;;;;;2.05;1.25;;;24.80;53.60;;;;;;5040812;28;20032;-76
2022/06/15 11:41:51;;;;;;;1.00;0.75;;;24.60;54.20;;;;;;5031835;28;20021;-76
2022/06/15 11:44:27;;;;;;;2.47;1.00;;;24.40;55.00;;;;;;5028321;28;20022;-76
2022/06/15 11:47:29;;;;;;;1.20;1.10;;;24.10;55.40;;;;;;5032265;28;20032;-76
2022/06/15 11:50:11;;;;;;;1.90;1.40;;;24.20;56.00;;;;;;5032481;28;20354;-75
2022/06/15 11:53:01;;;;;;;1.83;1.02;;;24.30;56.80;;;;;;5030382;28;20032;-76
2022/06/15 11:55:46;;;;;;;1.60;1.33;;;25.40;51.80;;;;;;5032158;28;20471;-76
2022/06/15 11:58:14;;;;;;;1.20;1.08;;;26.10;53.50;;;;;;5030557;28;20087;-76
2022/06/15 12:00:51;;;;;;;1.23;1.10;;;26.20;50.60;;;;;;5032383;28;20056;-76
2022/06/15 12:03:36;;;;;;;1.92;1.23;;;26.70;51.20;;;;;;5029260;28;20075;-76
2022/06/15 12:06:08;;;;;;;1.00;1.00;;;26.10;49.90;;;;;;5051697;28;20025;-76
2022/06/15 12:08:56;;;;;;;1.30;1.20;;;26.30;50.00;;;;;;5051226;28;20035;-76
2022/06/15 12:14:50;;;;;;;1.15;1.05;;;26.20;50.10;;;;;;5031256;28;20087;-75
2022/06/15 12:17:36;;;;;;;0.80;0.80;;;26.80;48.90;;;;;;5029349;28;20136;-76
2022/06/15 12:20:39;;;;;;;1.15;1.00;;;28.10;50.00;;;;;;5030589;28;20435;-76
2022/06/15 12:23:32;;;;;;;2.03;1.08;;;27.80;51.30;;;;;;5030333;28;20022;-75
2022/06/15 12:26:08;;;;;;;2.55;1.20;;;28.70;47.70;;;;;;5031327;28;20029;-75
2022/06/15 12:28:57;;;;;;;0.60;0.60;;;29.50;47.80;;;;;;5028638;28;20040;-75
2022/06/15 12:31:36;;;;;;;2.88;1.00;;;29.80;46.30;;;;;;5040848;28;20634;-76
2022/06/15 12:34:28;;;;;;;0.88;0.88;;;30.20;44.70;;;;;;5030021;28;20038;-75
2022/06/15 12:37:18;;;;;;;2.40;1.35;;;30.30;42.80;;;;;;5029595;28;20029;-76
2022/06/15 12:40:06;;;;;;;1.13;1.03;;;29.70;44.50;;;;;;5025782;28;20040;-74
2022/06/15 12:42:32;;;;;;;2.03;1.23;;;29.90;45.00;;;;;;5024238;28;20761;-76
2022/06/15 12:45:14;;;;;;;2.47;1.05;;;30.70;44.70;;;;;;5025250;28;20052;-76
2022/06/15 12:47:40;;;;;;;1.15;1.05;;;31.70;39.90;;;;;;5027402;28;20030;-76
2022/06/15 12:50:31;;;;;;;1.38;1.00;;;32.30;38.20;;;;;;5030381;28;20189;-76
2022/06/15 12:53:27;;;;;;;1.00;1.00;;;33.00;38.50;;;;;;5030718;28;20723;-76
2022/06/15 12:56:13;;;;;;;0.75;0.75;;;33.10;37.80;;;;;;5029697;28;20033;-77
2022/06/15 12:58:49;;;;;;;4.40;1.55;;;34.50;36.30;;;;;;5027608;28;20476;-78
2022/06/15 13:01:19;;;;;;;0.90;0.90;;;35.10;35.00;;;;;;5029372;28;20021;-77
2022/06/15 13:04:10;;;;;;;5.88;1.23;;;35.70;35.30;;;;;;5024986;28;20540;-77
2022/06/15 13:06:38;;;;;;;0.60;0.60;;;36.30;33.30;;;;;;5028347;28;20053;-76
2022/06/15 13:09:04;;;;;;;1.52;0.98;;;37.40;34.20;;;;;;5028730;28;20029;-76
2022/06/15 13:11:30;;;;;;;1.10;1.00;;;37.80;32.40;;;;;;5031190;28;20048;-76
2022/06/15 13:14:11;;;;;;;1.38;0.85;;;38.00;30.00;;;;;;5032292;28;20033;-76
2022/06/15 13:16:40;;;;;;;1.20;1.10;;;37.80;32.00;;;;;;5027805;28;20033;-76
2022/06/15 13:19:25;;;;;;;0.80;0.80;;;38.50;30.70;;;;;;5029393;28;20026;-76
2022/06/15 13:21:56;;;;;;;1.55;1.30;;;38.40;32.10;;;;;;5026897;28;20087;-75
2022/06/15 13:24:22;;;;;;;2.55;1.30;;;39.00;31.70;;;;;;5025699;28;20033;-76
2022/06/15 13:26:52;;;;;;;1.00;1.00;;;39.70;30.00;;;;;;5028523;28;20159;-76
2022/06/15 13:29:21;;;;;;;3.33;0.90;;;40.50;29.40;;;;;;5030781;28;20021;-76
2022/06/15 13:31:50;;;;;;;1.20;0.93;;;41.50;29.60;;;;;;5044187;28;20396;-76
2022/06/15 13:34:34;;;;;;;1.20;0.80;;;42.00;27.70;;;;;;5026252;28;20109;-76
2022/06/15 13:37:14;;;;;;;0.80;0.80;;;42.20;27.80;;;;;;5030427;28;20025;-76
2022/06/15 13:39:43;;;;;;;;;;;42.00;28.30;;;;;;5029783;28;20450;-75
2022/06/15 13:42:25;;;;;;;1.50;1.40;;;41.80;27.20;;;;;;5023768;28;19913;-76